createdAt,value
2022-09-01T00:01:41.662Z,13.82
2022-09-01T00:06:46.999Z,13.84
2022-09-01T00:11:59.027Z,13.74
2022-09-01T00:17:06.780Z,13.69
2022-09-01T00:22:11.161Z,13.75
2022-09-01T00:27:17.943Z,13.88
2022-09-01T00:32:23.487Z,13.82
2022-09-01T00:37:28.334Z,13.74
2022-09-01T00:42:34.268Z,13.71
2022-09-01T00:47:39.072Z,13.63
2022-09-01T00:52:48.898Z,13.53
2022-09-01T00:57:55.597Z,13.50
2022-09-01T01:03:01.030Z,13.36
2022-09-01T01:08:08.774Z,13.32
2022-09-01T01:13:17.929Z,13.25
2022-09-01T01:18:23.006Z,13.20
2022-09-01T01:23:37.479Z,13.09
2022-09-01T01:28:44.730Z,13.08
2022-09-01T01:33:51.712Z,13.03
2022-09-01T01:38:58.141Z,13.01
2022-09-01T01:44:06.165Z,13.06
2022-09-01T01:49:12.001Z,13.02
2022-09-01T01:54:20.353Z,12.96
2022-09-01T01:59:30.092Z,12.94
2022-09-01T02:04:34.949Z,12.91
2022-09-01T02:09:48.433Z,12.86
2022-09-01T02:14:55.722Z,12.92
2022-09-01T02:20:00.442Z,12.99
2022-09-01T02:25:06.226Z,13.00
2022-09-01T02:30:13.567Z,12.94
2022-09-01T02:35:19.390Z,13.00
2022-09-01T02:40:24.254Z,12.94
2022-09-01T02:45:30.459Z,12.94
2022-09-01T02:50:35.075Z,12.92
2022-09-01T02:55:39.894Z,12.97
2022-09-01T03:00:47.442Z,12.89
2022-09-01T03:05:55.861Z,12.87
2022-09-01T03:11:03.741Z,12.85
2022-09-01T03:16:11.718Z,12.73
2022-09-01T03:21:17.379Z,12.68
2022-09-01T03:26:23.229Z,12.60
2022-09-01T03:31:31.183Z,12.63
2022-09-01T03:36:39.963Z,12.60
2022-09-01T03:41:45.203Z,12.60
2022-09-01T03:46:52.122Z,12.51
2022-09-01T03:51:59.090Z,12.64
2022-09-01T03:57:06.457Z,12.56
2022-09-01T04:02:13.453Z,12.66
2022-09-01T04:07:19.352Z,12.61
2022-09-01T04:12:26.335Z,12.62
2022-09-01T04:17:49.792Z,12.62
2022-09-01T04:22:54.125Z,12.54
2022-09-01T04:27:59.828Z,12.66
2022-09-01T04:33:05.932Z,12.72
2022-09-01T04:38:10.939Z,12.78
2022-09-01T04:43:15.184Z,12.70
2022-09-01T04:48:23.949Z,12.76
2022-09-01T04:53:29.820Z,12.85
2022-09-01T04:58:35.448Z,12.83
2022-09-01T05:03:41.582Z,12.96
2022-09-01T05:08:54.401Z,12.88
2022-09-01T05:14:19.276Z,12.97
2022-09-01T05:19:29.162Z,13.25
2022-09-01T05:24:41.766Z,13.24
2022-09-01T05:29:47.718Z,13.57
2022-09-01T05:34:55.802Z,13.70
2022-09-01T05:40:01.281Z,13.66
2022-09-01T05:45:11.079Z,13.91
2022-09-01T05:50:19.488Z,14.07
2022-09-01T05:55:28.170Z,14.08
2022-09-01T06:00:35.038Z,14.12
2022-09-01T06:05:41.515Z,14.25
2022-09-01T06:10:50.911Z,14.55
2022-09-01T06:15:58.540Z,14.71
2022-09-01T06:21:09.008Z,14.94
2022-09-01T06:26:19.348Z,15.35
2022-09-01T06:31:25.552Z,15.71
2022-09-01T06:36:35.070Z,16.98
2022-09-01T06:41:40.596Z,19.64
2022-09-01T06:46:48.504Z,19.55
2022-09-01T06:51:54.656Z,19.28
2022-09-01T06:58:03.265Z,20.25
2022-09-01T07:02:29.512Z,21.61
2022-09-01T07:08:06.141Z,22.73
2022-09-01T07:13:31.041Z,21.67
2022-09-01T07:18:38.483Z,20.64
2022-09-01T07:23:46.663Z,20.38
2022-09-01T07:29:01.935Z,20.48
2022-09-01T07:45:47.140Z,24.75
2022-09-01T07:56:26.412Z,30.25
2022-09-01T08:01:31.410Z,29.49
2022-09-01T08:06:39.204Z,27.70
2022-09-01T08:12:03.171Z,27.85
2022-09-01T08:22:43.124Z,26.73
2022-09-01T08:28:01.204Z,25.72
2022-09-01T08:33:10.484Z,24.85
2022-09-01T08:38:19.539Z,23.71
2022-09-01T08:43:36.064Z,23.84
2022-09-01T08:54:29.949Z,23.71
2022-09-01T08:59:39.699Z,23.45
2022-09-01T09:05:15.628Z,23.71
2022-09-01T09:10:24.612Z,23.84
2022-09-01T09:15:40.711Z,23.41
2022-09-01T09:20:46.527Z,24.32
2022-09-01T09:25:52.777Z,24.64
2022-09-01T09:31:33.906Z,24.84
2022-09-01T09:36:42.578Z,24.98
2022-09-01T09:42:09.765Z,23.23
2022-09-01T09:47:45.034Z,22.00
2022-09-01T09:52:53.224Z,21.47
2022-09-01T09:58:01.496Z,22.69
2022-09-01T10:03:12.260Z,22.18
2022-09-01T10:08:45.646Z,21.65
2022-09-01T10:27:43.032Z,22.52
2022-09-01T10:32:55.719Z,23.33
2022-09-01T10:38:08.256Z,23.01
2022-09-01T10:43:38.010Z,22.31
2022-09-01T10:48:48.796Z,22.92
2022-09-01T10:54:03.249Z,24.61
2022-09-01T11:05:19.857Z,22.30
2022-09-01T11:10:40.000Z,21.40
2022-09-01T11:15:47.559Z,21.56
2022-09-01T11:20:52.714Z,22.45
2022-09-01T11:31:41.575Z,23.52
2022-09-01T11:37:01.912Z,24.32
2022-09-01T11:42:13.477Z,22.92
2022-09-01T11:47:27.114Z,22.74
2022-09-01T11:52:34.249Z,23.21
2022-09-01T11:57:42.406Z,22.21
2022-09-01T12:02:52.205Z,22.09
2022-09-01T12:08:02.653Z,24.00
2022-09-01T12:13:10.102Z,24.04
2022-09-01T12:18:22.408Z,23.87
2022-09-01T12:23:31.977Z,23.06
2022-09-01T12:28:36.516Z,22.53
2022-09-01T12:33:45.490Z,21.53
2022-09-01T12:38:50.630Z,22.06
2022-09-01T12:43:56.356Z,22.01
2022-09-01T12:49:20.251Z,22.02
2022-09-01T12:54:27.667Z,23.47
2022-09-01T12:59:37.574Z,23.06
2022-09-01T13:04:43.929Z,22.39
2022-09-01T13:09:48.699Z,21.90
2022-09-01T13:14:53.459Z,22.97
2022-09-01T13:19:59.361Z,23.82
2022-09-01T13:25:03.937Z,22.56
2022-09-01T13:30:10.001Z,21.29
2022-09-01T13:35:18.199Z,24.15
2022-09-01T13:40:24.356Z,25.57
2022-09-01T13:45:29.198Z,24.90
2022-09-01T13:56:00.871Z,25.04
2022-09-01T14:01:05.413Z,28.92
2022-09-01T14:06:12.511Z,27.11
2022-09-01T14:11:20.300Z,25.11
2022-09-01T14:16:24.981Z,24.87
2022-09-01T14:21:31.822Z,23.55
2022-09-01T14:26:36.546Z,26.25
2022-09-01T14:31:40.707Z,27.63
2022-09-01T14:36:48.027Z,28.08
2022-09-01T14:41:53.609Z,28.52
2022-09-01T14:46:59.571Z,28.15
2022-09-01T14:52:10.753Z,26.26
2022-09-01T14:57:37.860Z,23.74
2022-09-01T15:02:43.922Z,22.04
2022-09-01T15:07:51.048Z,20.81
2022-09-01T15:12:58.350Z,19.97
2022-09-01T15:18:03.855Z,19.81
2022-09-01T15:23:10.522Z,19.94
2022-09-01T15:28:15.606Z,20.43
2022-09-01T15:33:20.638Z,20.66
2022-09-01T15:38:30.529Z,20.51
2022-09-01T15:43:35.962Z,19.46
2022-09-01T15:48:40.334Z,19.27
2022-09-01T15:53:46.256Z,19.22
2022-09-01T15:59:07.482Z,19.01
2022-09-01T16:04:19.140Z,18.88
2022-09-01T16:09:27.857Z,18.96
2022-09-01T16:14:32.461Z,19.01
2022-09-01T16:19:49.676Z,19.05
2022-09-01T16:24:58.367Z,19.05
2022-09-01T16:30:07.120Z,18.96
2022-09-01T16:35:11.761Z,18.65
2022-09-01T16:40:31.513Z,18.33
2022-09-01T16:45:48.079Z,18.18
2022-09-01T16:50:59.643Z,18.00
2022-09-01T16:56:09.453Z,17.68
2022-09-01T17:01:24.676Z,17.41
2022-09-01T17:06:33.972Z,17.19
2022-09-01T17:11:49.238Z,17.00
2022-09-01T17:16:56.875Z,17.09
2022-09-01T17:22:06.819Z,16.89
2022-09-01T17:27:20.154Z,16.54
2022-09-01T17:32:54.243Z,16.46
2022-09-01T17:38:06.187Z,16.25
2022-09-01T17:43:26.627Z,16.16
2022-09-01T17:48:41.169Z,15.98
2022-09-01T17:53:58.344Z,16.00
2022-09-01T17:59:12.228Z,15.86
2022-09-01T18:04:41.098Z,15.80
2022-09-01T18:09:50.995Z,15.88
2022-09-01T18:15:09.165Z,15.90
2022-09-01T18:20:21.488Z,15.85
2022-09-01T18:25:30.387Z,15.70
2022-09-01T18:30:53.515Z,15.67
2022-09-01T18:36:09.421Z,15.74
2022-09-01T18:41:35.979Z,15.72
2022-09-01T18:46:49.886Z,15.89
2022-09-01T18:52:09.702Z,15.93
2022-09-01T18:57:21.341Z,15.93
2022-09-01T19:02:40.791Z,15.73
2022-09-01T19:07:55.826Z,15.71
2022-09-01T19:13:10.111Z,15.66
2022-09-01T19:18:26.276Z,15.59
2022-09-01T19:23:41.887Z,15.43
2022-09-01T19:28:50.813Z,15.07
2022-09-01T19:34:00.658Z,15.05
2022-09-01T19:39:07.377Z,14.88
2022-09-01T19:44:21.619Z,14.85
2022-09-01T19:49:39.872Z,14.68
2022-09-01T19:54:52.486Z,14.61
2022-09-01T20:00:06.151Z,14.46
2022-09-01T20:05:24.398Z,14.29
2022-09-01T20:10:51.612Z,14.18
2022-09-01T20:16:09.962Z,13.96
2022-09-01T20:21:21.294Z,13.83
2022-09-01T20:26:33.110Z,13.86
2022-09-01T20:31:42.181Z,13.80
2022-09-01T20:36:52.561Z,13.69
2022-09-01T20:42:01.637Z,13.67
2022-09-01T20:47:07.852Z,13.75
2022-09-01T20:52:18.393Z,13.62
2022-09-01T20:57:34.675Z,13.49
2022-09-01T21:02:53.872Z,13.34
2022-09-01T21:08:18.934Z,13.27
2022-09-01T21:13:37.377Z,13.04
2022-09-01T21:18:52.160Z,13.08
2022-09-01T21:23:58.492Z,13.01
2022-09-01T21:29:16.416Z,12.98
2022-09-01T21:34:20.869Z,12.90
2022-09-01T21:39:27.231Z,12.83
2022-09-01T21:44:34.257Z,12.72
2022-09-01T21:49:38.738Z,12.45
2022-09-01T21:54:44.848Z,12.47
2022-09-01T21:59:49.529Z,12.57
2022-09-01T22:04:53.873Z,12.61
2022-09-01T22:10:00.063Z,12.61
2022-09-01T22:15:06.173Z,12.58
2022-09-01T22:20:13.222Z,12.59
2022-09-01T22:25:24.160Z,12.46
2022-09-01T22:30:29.445Z,12.55
2022-09-01T22:35:34.478Z,12.47
2022-09-01T22:40:48.263Z,12.47
2022-09-01T22:45:53.922Z,12.25
2022-09-01T22:50:58.191Z,12.28
2022-09-01T22:56:11.624Z,12.21
2022-09-01T23:01:21.537Z,12.17
2022-09-01T23:06:28.024Z,12.09
2022-09-01T23:11:34.229Z,12.02
2022-09-01T23:16:39.155Z,12.07
2022-09-01T23:21:43.782Z,12.08
2022-09-01T23:26:50.755Z,12.08
2022-09-01T23:31:55.955Z,11.93
2022-09-01T23:37:01.005Z,11.86
2022-09-01T23:42:07.401Z,11.86
2022-09-01T23:47:12.126Z,11.66
2022-09-01T23:52:16.903Z,11.67
2022-09-01T23:57:23.033Z,11.59
